Time;durP1;ratioP1;P1;durP2;ratioP2;P2;SDS_P1;SDS_P2;PMS_P1;PMS_P2;Temp;Humidity;BMP_temperature;BMP_pressure;BME280_temperature;BME280_humidity;BME280_pressure;Samples;Min_cycle;Max_cycle;Signal;HPM_P1;HPM_P2
2022/11/13 00:02:00;;;;;;;8.30;3.70;;;19.00;60.50;;;;;;5029154;28;20065;-68
2022/11/13 00:04:26;;;;;;;5.10;3.65;;;19.00;60.60;;;;;;5036489;28;20136;-68
2022/11/13 00:06:51;;;;;;;5.63;3.38;;;19.00;60.50;;;;;;5033765;28;20057;-67
2022/11/13 00:09:17;;;;;;;5.20;3.35;;;19.00;61.30;;;;;;5030469;28;20041;-68
2022/11/13 00:11:42;;;;;;;4.68;3.65;;;19.00;60.50;;;;;;5033429;28;20118;-67
2022/11/13 00:14:08;;;;;;;5.30;3.65;;;19.00;60.50;;;;;;5033476;28;20037;-68
2022/11/13 00:16:34;;;;;;;4.55;3.30;;;19.00;60.90;;;;;;5027395;28;20041;-67
2022/11/13 00:18:59;;;;;;;5.10;3.25;;;19.00;60.50;;;;;;5034831;28;20487;-67
2022/11/13 00:21:26;;;;;;;5.30;3.40;;;19.00;60.50;;;;;;5028895;28;20419;-68
2022/11/13 00:23:52;;;;;;;4.38;3.53;;;18.90;60.40;;;;;;5032316;28;20040;-68
2022/11/13 00:26:20;;;;;;;5.38;3.58;;;18.90;60.40;;;;;;5028665;28;20107;-69
2022/11/13 00:28:50;;;;;;;;;;;19.00;60.40;;;;;;5030810;28;21784;-67
2022/11/13 00:31:16;;;;;;;5.47;3.58;;;18.90;60.30;;;;;;5036069;28;19952;-68
2022/11/13 00:33:42;;;;;;;5.80;3.25;;;18.90;60.30;;;;;;5029375;28;20124;-69
2022/11/13 00:36:12;;;;;;;3.50;2.90;;;18.90;60.30;;;;;;5030286;28;20442;-68
2022/11/13 00:38:38;;;;;;;5.00;3.50;;;18.90;60.40;;;;;;5029788;28;20041;-68
2022/11/13 00:41:04;;;;;;;4.60;3.17;;;18.90;60.30;;;;;;5028698;28;21036;-68
2022/11/13 00:43:29;;;;;;;4.68;3.20;;;18.90;60.30;;;;;;5031315;28;20622;-68
2022/11/13 00:45:55;;;;;;;4.75;3.47;;;19.00;60.20;;;;;;5027458;28;20067;-67
2022/11/13 00:48:21;;;;;;;5.13;3.70;;;18.90;60.20;;;;;;5031702;28;20409;-68
2022/11/13 00:50:46;;;;;;;5.20;2.95;;;18.90;60.20;;;;;;5033990;28;20046;-68
2022/11/13 00:53:12;;;;;;;3.88;3.20;;;18.90;60.10;;;;;;5031132;28;20128;-69
2022/11/13 00:55:38;;;;;;;4.80;3.40;;;18.90;60.10;;;;;;5031385;28;20041;-69
2022/11/13 00:58:03;;;;;;;4.28;3.28;;;18.90;60.10;;;;;;5027865;28;20072;-69
2022/11/13 01:00:30;;;;;;;4.18;3.15;;;18.90;60.10;;;;;;5026924;28;20091;-69
2022/11/13 01:02:59;;;;;;;4.72;3.45;;;18.90;60.10;;;;;;5031794;28;20040;-67
2022/11/13 01:05:26;;;;;;;5.40;2.97;;;18.90;60.10;;;;;;5027752;28;20041;-68
2022/11/13 01:07:51;;;;;;;4.38;3.10;;;18.90;60.10;;;;;;5027186;28;20041;-68
2022/11/13 01:10:17;;;;;;;3.53;2.78;;;18.90;60.00;;;;;;5031154;28;20053;-68
2022/11/13 01:12:46;;;;;;;4.32;3.10;;;18.90;60.00;;;;;;5030681;28;20040;-69
2022/11/13 01:15:11;;;;;;;4.05;3.00;;;18.80;60.00;;;;;;5032463;28;20048;-68
2022/11/13 01:17:37;;;;;;;4.68;3.60;;;18.90;60.00;;;;;;5025311;28;20107;-69
2022/11/13 01:20:04;;;;;;;4.50;3.10;;;18.90;60.00;;;;;;5031663;28;20079;-67
2022/11/13 01:22:29;;;;;;;5.05;2.72;;;18.90;60.00;;;;;;5031510;28;20041;-68
2022/11/13 01:24:55;;;;;;;5.00;2.97;;;18.90;59.90;;;;;;5026441;28;20049;-68
2022/11/13 01:27:20;;;;;;;4.05;3.17;;;18.90;59.90;;;;;;5030994;28;20045;-68
2022/11/13 01:29:46;;;;;;;5.45;3.15;;;18.90;59.90;;;;;;5028023;28;20049;-67
2022/11/13 01:32:12;;;;;;;6.03;3.17;;;18.90;59.90;;;;;;5032726;28;20143;-68
2022/11/13 01:34:37;;;;;;;4.07;2.83;;;18.90;59.80;;;;;;5027646;28;20155;-67
2022/11/13 01:37:03;;;;;;;5.53;3.10;;;18.80;59.70;;;;;;5028986;28;20223;-68
2022/11/13 01:39:29;;;;;;;5.45;2.88;;;18.80;59.70;;;;;;5031128;28;20045;-69
2022/11/13 01:41:56;;;;;;;4.32;2.67;;;18.90;59.80;;;;;;5028084;28;20503;-68
2022/11/13 01:44:22;;;;;;;4.88;3.00;;;18.80;59.70;;;;;;5027872;28;20049;-67
2022/11/13 01:46:51;;;;;;;4.13;2.95;;;18.80;59.70;;;;;;5026509;28;21451;-68
2022/11/13 01:49:38;;;;;;;4.18;2.80;;;18.90;59.80;;;;;;5029237;28;20934;-67
2022/11/13 01:52:08;;;;;;;5.57;3.03;;;18.80;59.70;;;;;;5031491;28;20110;-67
2022/11/13 01:54:38;;;;;;;4.38;2.95;;;18.80;59.70;;;;;;5029853;28;20052;-67
2022/11/13 01:57:04;;;;;;;4.47;2.83;;;18.80;59.70;;;;;;5029185;28;20136;-68
2022/11/13 01:59:35;;;;;;;3.85;2.90;;;18.80;59.70;;;;;;5026948;28;20045;-68
2022/11/13 02:02:01;;;;;;;3.22;2.63;;;18.80;59.60;;;;;;5026287;28;20049;-68
2022/11/13 02:04:28;;;;;;;3.97;2.65;;;18.80;59.60;;;;;;5032665;28;20048;-66
2022/11/13 02:07:01;;;;;;;4.35;2.75;;;18.80;59.60;;;;;;5029783;28;20119;-67
2022/11/13 02:09:34;;;;;;;3.58;2.67;;;18.80;59.60;;;;;;5032321;28;20098;-68
2022/11/13 02:12:00;;;;;;;3.58;2.95;;;18.80;59.60;;;;;;5033281;28;20516;-69
2022/11/13 02:14:28;;;;;;;3.80;2.90;;;18.80;59.60;;;;;;5029678;28;20112;-68
2022/11/13 02:16:59;;;;;;;3.45;2.55;;;18.80;59.60;;;;;;5027749;28;20048;-69
2022/11/13 02:19:31;;;;;;;2.70;2.35;;;18.80;59.60;;;;;;5031287;28;21371;-66
2022/11/13 02:21:59;;;;;;;5.10;2.58;;;18.80;59.50;;;;;;5030859;28;20070;-69
2022/11/13 02:24:30;;;;;;;4.13;2.75;;;18.80;59.50;;;;;;5028319;28;20053;-68
2022/11/13 02:27:00;;;;;;;3.55;2.67;;;18.80;59.50;;;;;;5026745;28;20049;-68
2022/11/13 02:29:26;;;;;;;3.80;2.70;;;18.80;59.40;;;;;;5028284;28;20056;-68
2022/11/13 02:31:51;;;;;;;3.58;2.72;;;18.80;59.50;;;;;;5045340;28;20055;-67
2022/11/13 02:34:17;;;;;;;2.90;2.50;;;18.80;59.40;;;;;;5029958;28;20053;-67
2022/11/13 02:36:42;;;;;;;4.50;2.85;;;18.80;59.40;;;;;;5030530;28;20033;-68
2022/11/13 02:39:11;;;;;;;3.83;2.42;;;18.80;59.40;;;;;;5030599;28;20626;-68
2022/11/13 02:41:37;;;;;;;3.45;2.72;;;18.80;59.40;;;;;;5029577;28;20480;-67
2022/11/13 02:44:04;;;;;;;3.78;2.63;;;18.80;59.40;;;;;;5029850;28;20059;-68
2022/11/13 02:46:30;;;;;;;3.58;2.53;;;18.80;59.40;;;;;;5026230;28;20570;-68
2022/11/13 02:48:56;;;;;;;3.30;2.53;;;18.80;59.40;;;;;;5030465;28;20057;-69
2022/11/13 02:51:21;;;;;;;5.00;2.58;;;18.80;59.40;;;;;;5025322;28;21065;-68
2022/11/13 02:53:47;;;;;;;3.92;2.80;;;18.70;59.30;;;;;;5031114;28;20040;-68
2022/11/13 02:56:12;;;;;;;3.25;2.58;;;18.80;59.40;;;;;;5028512;28;20448;-68
2022/11/13 02:58:38;;;;;;;3.55;2.58;;;18.80;59.30;;;;;;5026884;28;20496;-68
2022/11/13 03:01:04;;;;;;;4.40;2.75;;;18.80;59.30;;;;;;5029336;28;20513;-67
2022/11/13 03:03:30;;;;;;;3.63;2.47;;;18.80;59.30;;;;;;5027082;28;20094;-69
2022/11/13 03:05:55;;;;;;;3.45;2.65;;;18.80;59.30;;;;;;5026941;28;20080;-67
2022/11/13 03:08:24;;;;;;;3.33;2.72;;;18.70;59.20;;;;;;5030417;28;20048;-68
2022/11/13 03:10:50;;;;;;;3.17;2.60;;;18.80;59.30;;;;;;5029260;28;20041;-67
2022/11/13 03:13:16;;;;;;;3.15;2.33;;;18.80;59.30;;;;;;5029540;28;20069;-69
2022/11/13 03:15:41;;;;;;;4.22;2.70;;;18.80;59.30;;;;;;5026256;28;20049;-68
2022/11/13 03:18:07;;;;;;;3.58;2.83;;;18.80;59.20;;;;;;5029877;28;20124;-68
2022/11/13 03:20:36;;;;;;;3.42;2.45;;;18.70;59.20;;;;;;5031955;28;20040;-68
2022/11/13 03:23:03;;;;;;;3.60;2.60;;;18.80;59.20;;;;;;5026722;28;20041;-68
2022/11/13 03:25:28;;;;;;;4.05;2.63;;;18.80;59.20;;;;;;5028611;28;20481;-68
2022/11/13 03:27:54;;;;;;;3.40;2.35;;;18.80;59.20;;;;;;5026971;28;20045;-69
2022/11/13 03:30:20;;;;;;;3.50;2.53;;;18.70;59.10;;;;;;5022380;28;20111;-68
2022/11/13 03:32:45;;;;;;;5.03;2.50;;;18.80;59.70;;;;;;5023630;28;20037;-68
2022/11/13 03:35:11;;;;;;;3.53;2.47;;;18.70;59.00;;;;;;5024861;28;20059;-68
2022/11/13 03:37:36;;;;;;;3.63;2.88;;;18.70;59.00;;;;;;5026381;28;20477;-68
2022/11/13 03:40:02;;;;;;;2.90;2.60;;;18.70;59.00;;;;;;5028841;28;20448;-67
2022/11/13 03:42:28;;;;;;;4.25;2.60;;;18.80;59.00;;;;;;5025955;28;20163;-68
2022/11/13 03:44:54;;;;;;;5.05;2.72;;;18.80;59.00;;;;;;5028472;28;20045;-68
2022/11/13 03:47:19;;;;;;;3.85;2.38;;;18.80;59.00;;;;;;5026922;28;20044;-69
2022/11/13 03:49:45;;;;;;;2.83;2.15;;;18.80;59.00;;;;;;5026132;28;20124;-67
2022/11/13 03:52:10;;;;;;;3.50;2.70;;;18.70;59.00;;;;;;5032189;28;20056;-68
2022/11/13 03:54:36;;;;;;;3.05;2.50;;;18.80;59.00;;;;;;5023091;28;20049;-67
2022/11/13 03:57:01;;;;;;;3.25;2.40;;;18.70;59.00;;;;;;5027301;28;20037;-69
2022/11/13 03:59:27;;;;;;;3.25;2.28;;;18.80;59.00;;;;;;5027829;28;20098;-68
2022/11/13 04:01:52;;;;;;;3.13;2.60;;;18.80;59.00;;;;;;5024551;28;20055;-69
2022/11/13 04:04:18;;;;;;;3.97;2.45;;;18.80;59.00;;;;;;5032341;28;20068;-69
2022/11/13 04:06:44;;;;;;;3.63;2.50;;;18.70;59.00;;;;;;5021569;28;20469;-67
2022/11/13 04:09:10;;;;;;;4.00;2.42;;;18.70;59.00;;;;;;5028740;28;20076;-67
2022/11/13 04:11:35;;;;;;;2.88;2.47;;;18.80;59.00;;;;;;5030699;28;20036;-67
2022/11/13 04:14:04;;;;;;;;;;;18.80;59.00;;;;;;5028355;28;20064;-67
2022/11/13 04:16:29;;;;;;;3.38;2.30;;;18.80;59.10;;;;;;5035281;28;19924;-68
2022/11/13 04:18:55;;;;;;;3.75;2.47;;;18.70;59.00;;;;;;5030991;28;20123;-68
2022/11/13 04:21:20;;;;;;;3.55;2.53;;;18.70;58.90;;;;;;5031835;28;20045;-68
2022/11/13 04:23:46;;;;;;;4.13;2.63;;;18.80;59.00;;;;;;5033602;28;20112;-68
2022/11/13 04:26:12;;;;;;;3.50;2.63;;;18.80;59.00;;;;;;5027740;28;21065;-69
2022/11/13 04:28:37;;;;;;;3.08;2.30;;;18.70;58.90;;;;;;5029951;28;20734;-68
2022/11/13 04:31:03;;;;;;;3.58;2.40;;;18.70;59.00;;;;;;5028803;28;20044;-67
2022/11/13 04:33:29;;;;;;;3.20;2.58;;;18.80;59.00;;;;;;5029563;28;20045;-68
2022/11/13 04:35:54;;;;;;;4.22;2.50;;;18.70;59.00;;;;;;5033887;28;20137;-67
2022/11/13 04:38:20;;;;;;;2.80;2.28;;;18.80;59.00;;;;;;5034266;28;20081;-70
2022/11/13 04:40:50;;;;;;;4.43;2.30;;;18.70;59.00;;;;;;5031440;28;20100;-69
2022/11/13 04:43:15;;;;;;;4.43;2.60;;;18.70;59.00;;;;;;5031108;28;20096;-68
2022/11/13 04:45:41;;;;;;;4.07;2.40;;;18.70;58.90;;;;;;5027742;28;20469;-67
2022/11/13 04:48:06;;;;;;;2.95;2.38;;;18.70;58.90;;;;;;5031654;28;20038;-68
2022/11/13 04:50:32;;;;;;;3.20;2.42;;;18.70;58.90;;;;;;5033555;28;20068;-68
2022/11/13 04:52:58;;;;;;;2.75;2.28;;;18.70;58.90;;;;;;5027158;28;20041;-68
2022/11/13 04:55:23;;;;;;;3.13;2.33;;;18.80;58.90;;;;;;5032876;28;20443;-69
2022/11/13 04:57:50;;;;;;;3.13;2.40;;;18.80;59.00;;;;;;5028089;28;20144;-68
2022/11/13 05:00:16;;;;;;;3.30;2.28;;;18.70;58.90;;;;;;5036472;28;20064;-68
2022/11/13 05:02:42;;;;;;;2.53;2.30;;;18.70;58.90;;;;;;5025148;28;20049;-68
2022/11/13 05:05:08;;;;;;;3.20;2.50;;;18.70;58.80;;;;;;5032881;28;20037;-67
2022/11/13 05:07:33;;;;;;;2.72;2.20;;;18.70;58.80;;;;;;5031853;28;20148;-69
2022/11/13 05:09:59;;;;;;;3.42;2.28;;;18.70;58.80;;;;;;5027927;28;20045;-68
2022/11/13 05:12:24;;;;;;;3.10;2.30;;;18.70;58.80;;;;;;5034249;28;20128;-68
2022/11/13 05:14:50;;;;;;;3.08;2.20;;;18.70;58.80;;;;;;5027221;28;20056;-68
2022/11/13 05:17:15;;;;;;;3.17;2.10;;;18.70;58.80;;;;;;5031503;28;20041;-68
2022/11/13 05:19:41;;;;;;;3.38;2.50;;;18.70;58.80;;;;;;5030189;28;20048;-68
2022/11/13 05:22:07;;;;;;;2.88;2.17;;;18.70;58.80;;;;;;5028530;28;20060;-68
2022/11/13 05:24:32;;;;;;;2.33;2.10;;;18.70;58.70;;;;;;5025453;28;20083;-68
2022/11/13 05:26:58;;;;;;;3.92;2.22;;;18.70;58.70;;;;;;5026433;28;20049;-68
2022/11/13 05:29:24;;;;;;;3.08;2.30;;;18.70;58.70;;;;;;5031786;28;20053;-68
2022/11/13 05:31:49;;;;;;;3.75;2.05;;;18.70;58.70;;;;;;5031377;28;20437;-69
2022/11/13 05:34:15;;;;;;;4.47;2.67;;;18.70;58.70;;;;;;5026270;28;20029;-69
2022/11/13 05:36:41;;;;;;;2.63;2.17;;;18.70;58.70;;;;;;5027665;28;20744;-69
2022/11/13 05:39:06;;;;;;;4.65;2.33;;;18.70;58.70;;;;;;5033308;28;20397;-69
2022/11/13 05:41:32;;;;;;;3.75;2.20;;;18.70;58.60;;;;;;5025033;28;20045;-68
2022/11/13 05:43:58;;;;;;;2.85;2.30;;;18.70;58.60;;;;;;5030926;28;20079;-68
2022/11/13 05:46:26;;;;;;;3.63;2.38;;;18.70;58.60;;;;;;5027229;28;20040;-68
2022/11/13 05:48:57;;;;;;;2.45;2.25;;;18.70;58.60;;;;;;5024320;28;20118;-68
2022/11/13 05:51:25;;;;;;;2.75;2.35;;;18.70;58.60;;;;;;5033688;28;20412;-68
2022/11/13 05:53:52;;;;;;;2.53;2.20;;;18.70;58.60;;;;;;5025357;28;20911;-69
2022/11/13 05:56:29;;;;;;;3.38;2.58;;;18.70;58.60;;;;;;5029000;28;20123;-68
2022/11/13 05:58:56;;;;;;;3.00;2.42;;;18.70;58.50;;;;;;5028169;28;20059;-67
2022/11/13 06:01:28;;;;;;;2.47;1.98;;;18.70;58.60;;;;;;5010106;28;20065;-69
2022/11/13 06:03:55;;;;;;;3.40;2.30;;;18.70;58.50;;;;;;5032647;28;20041;-69
2022/11/13 06:06:22;;;;;;;2.90;2.17;;;18.70;58.50;;;;;;5026964;28;20048;-68
2022/11/13 06:08:48;;;;;;;2.35;2.00;;;18.70;58.50;;;;;;5032418;28;20472;-68
2022/11/13 06:11:18;;;;;;;2.70;2.15;;;18.70;58.40;;;;;;5028832;28;20052;-67
2022/11/13 06:13:45;;;;;;;4.93;2.42;;;18.70;58.40;;;;;;5024022;28;20052;-68
2022/11/13 06:16:13;;;;;;;2.80;2.20;;;18.70;58.40;;;;;;5033540;28;20072;-68
2022/11/13 06:18:40;;;;;;;3.47;2.10;;;18.70;58.30;;;;;;5025812;28;20580;-68
2022/11/13 06:21:15;;;;;;;2.60;2.38;;;18.70;58.30;;;;;;5015354;28;20120;-68
2022/11/13 06:23:41;;;;;;;2.80;2.28;;;18.70;58.30;;;;;;5030886;28;20127;-68
2022/11/13 06:26:13;;;;;;;3.45;2.30;;;18.70;58.30;;;;;;5029923;28;20044;-68
2022/11/13 06:28:39;;;;;;;2.13;1.92;;;18.70;58.30;;;;;;5028478;28;20049;-67
2022/11/13 06:31:29;;;;;;;3.75;2.20;;;18.70;58.30;;;;;;5029694;28;20060;-68
2022/11/13 06:33:55;;;;;;;3.60;2.50;;;18.70;59.00;;;;;;5032038;28;20124;-68
2022/11/13 06:36:23;;;;;;;3.17;2.20;;;18.70;58.30;;;;;;5027285;28;20056;-67
2022/11/13 06:38:52;;;;;;;3.15;2.17;;;18.70;58.30;;;;;;5026730;28;20045;-68
2022/11/13 06:41:23;;;;;;;3.45;2.42;;;18.70;58.20;;;;;;5028342;28;20125;-68
2022/11/13 06:43:49;;;;;;;2.33;2.00;;;18.70;58.20;;;;;;5022796;28;20053;-67
2022/11/13 06:46:20;;;;;;;2.85;2.20;;;18.70;58.20;;;;;;5032128;28;20088;-67
2022/11/13 06:48:46;;;;;;;2.58;2.03;;;18.70;58.20;;;;;;5024764;28;20575;-66
2022/11/13 06:51:15;;;;;;;3.00;2.13;;;18.70;58.20;;;;;;5026748;28;20059;-68
2022/11/13 06:53:41;;;;;;;3.33;2.33;;;18.70;58.20;;;;;;5032344;28;20033;-68
2022/11/13 06:56:08;;;;;;;3.17;2.00;;;18.70;58.20;;;;;;5028031;28;20148;-68
2022/11/13 06:58:33;;;;;;;3.60;2.45;;;18.70;58.20;;;;;;5029905;28;20395;-68
2022/11/13 07:01:13;;;;;;;3.65;2.53;;;18.70;58.30;;;;;;5026759;28;20419;-68
2022/11/13 07:03:40;;;;;;;2.15;1.95;;;18.70;58.10;;;;;;5031073;28;21188;-68
2022/11/13 07:06:12;;;;;;;3.03;2.30;;;18.70;58.10;;;;;;5029480;28;20500;-67
2022/11/13 07:08:39;;;;;;;3.05;2.45;;;18.70;58.10;;;;;;5023691;28;20389;-68
2022/11/13 07:11:06;;;;;;;2.67;2.10;;;18.70;58.20;;;;;;5025711;28;20041;-68
2022/11/13 07:13:32;;;;;;;3.85;2.20;;;18.70;58.10;;;;;;5029259;28;20045;-67
2022/11/13 07:16:03;;;;;;;2.60;2.10;;;18.70;58.10;;;;;;5024792;28;20056;-67
2022/11/13 07:18:30;;;;;;;3.10;2.28;;;18.70;58.10;;;;;;5035587;28;20060;-67
2022/11/13 07:20:56;;;;;;;2.80;2.20;;;18.70;58.10;;;;;;5028437;28;20137;-67
2022/11/13 07:23:22;;;;;;;2.65;2.10;;;18.70;58.00;;;;;;5032192;28;20148;-68
2022/11/13 07:25:47;;;;;;;2.75;2.15;;;18.70;58.10;;;;;;5026672;28;20400;-67
2022/11/13 07:28:13;;;;;;;3.42;2.10;;;18.70;58.00;;;;;;5023963;28;20049;-68
2022/11/13 07:30:38;;;;;;;2.67;2.00;;;18.70;58.00;;;;;;5030499;28;20477;-67
2022/11/13 07:33:04;;;;;;;2.65;2.08;;;18.70;58.00;;;;;;5025418;28;20101;-67
2022/11/13 07:35:30;;;;;;;2.72;2.00;;;18.70;58.00;;;;;;5031976;28;20059;-69
2022/11/13 07:37:57;;;;;;;2.80;2.00;;;18.70;57.90;;;;;;5026943;28;20063;-72
2022/11/13 07:40:23;;;;;;;3.33;2.25;;;18.70;58.00;;;;;;5027631;28;20057;-73
2022/11/13 07:42:57;;;;;;;2.50;2.25;;;18.70;58.00;;;;;;5027488;28;20772;-73
2022/11/13 07:45:22;;;;;;;5.32;2.58;;;18.70;58.20;;;;;;5027677;28;20107;-74
2022/11/13 07:47:48;;;;;;;2.90;2.17;;;18.70;58.20;;;;;;5028938;28;20041;-73
2022/11/13 07:50:13;;;;;;;4.70;2.13;;;18.70;58.30;;;;;;5032505;28;20441;-73
2022/11/13 07:52:39;;;;;;;4.85;2.53;;;18.70;58.40;;;;;;5026024;28;20060;-74
2022/11/13 07:55:05;;;;;;;5.93;2.25;;;18.80;58.50;;;;;;5031778;28;20162;-72
2022/11/13 07:57:31;;;;;;;3.65;2.20;;;19.00;58.40;;;;;;5030701;28;20068;-72
2022/11/13 07:59:56;;;;;;;6.28;2.70;;;19.20;58.00;;;;;;5034990;28;20476;-72
2022/11/13 08:02:22;;;;;;;5.78;4.00;;;19.30;57.50;;;;;;5036730;28;20069;-72
2022/11/13 08:04:47;;;;;;;8.55;6.80;;;19.20;57.00;;;;;;5028646;28;20147;-73
2022/11/13 08:07:13;;;;;;;4.47;3.17;;;19.10;56.10;;;;;;5031435;28;20049;-76
2022/11/13 08:09:39;;;;;;;6.15;4.05;;;19.00;56.70;;;;;;5034124;28;20037;-72
2022/11/13 08:12:04;;;;;;;6.68;5.05;;;18.90;57.00;;;;;;5030245;28;20726;-73
2022/11/13 08:14:30;;;;;;;8.13;4.75;;;18.90;56.70;;;;;;5031553;28;20128;-72
2022/11/13 08:16:56;;;;;;;8.93;4.90;;;18.90;56.50;;;;;;5030102;28;20552;-70
2022/11/13 08:19:21;;;;;;;9.85;5.22;;;19.00;56.50;;;;;;5034643;28;20044;-71
2022/11/13 08:21:47;;;;;;;7.50;5.38;;;18.90;56.30;;;;;;5033036;28;20050;-73
2022/11/13 08:24:12;;;;;;;8.35;5.07;;;18.90;56.30;;;;;;5023444;28;20110;-72
2022/11/13 08:26:38;;;;;;;7.57;5.22;;;19.00;56.40;;;;;;5030244;28;20839;-71
2022/11/13 08:29:04;;;;;;;7.35;5.15;;;19.00;56.40;;;;;;5024610;28;20172;-72
2022/11/13 08:31:30;;;;;;;7.10;5.05;;;19.00;56.50;;;;;;5032857;28;20052;-73
2022/11/13 08:33:56;;;;;;;6.22;4.85;;;19.00;56.50;;;;;;5035499;28;20073;-72
2022/11/13 08:36:21;;;;;;;7.75;4.70;;;19.00;56.70;;;;;;5028975;28;20159;-73
2022/11/13 08:38:47;;;;;;;6.90;4.32;;;19.10;56.70;;;;;;5033008;28;20049;-74
2022/11/13 08:41:13;;;;;;;9.10;4.40;;;19.10;56.90;;;;;;5025089;28;20705;-73
2022/11/13 08:43:38;;;;;;;11.90;5.15;;;19.10;57.30;;;;;;5031266;28;20041;-73
2022/11/13 08:46:04;;;;;;;13.30;4.50;;;19.10;57.50;;;;;;5035463;28;20037;-72
2022/11/13 08:48:30;;;;;;;8.07;4.63;;;19.20;57.70;;;;;;5014512;28;20116;-72
2022/11/13 08:50:56;;;;;;;6.93;4.50;;;19.20;57.80;;;;;;5026895;28;20905;-72
2022/11/13 08:53:23;;;;;;;8.27;4.38;;;19.20;58.00;;;;;;5032367;28;20110;-73
2022/11/13 08:55:49;;;;;;;7.30;4.28;;;19.20;58.10;;;;;;5030946;28;20112;-73
2022/11/13 08:58:14;;;;;;;7.80;4.32;;;19.20;58.10;;;;;;5034911;28;20592;-70
2022/11/13 09:00:40;;;;;;;8.27;4.65;;;19.30;58.30;;;;;;5028340;28;20044;-72
2022/11/13 09:03:05;;;;;;;9.18;4.50;;;19.30;58.30;;;;;;5028400;28;20131;-72
2022/11/13 09:05:31;;;;;;;5.65;3.78;;;19.30;58.40;;;;;;5032369;28;20036;-72
2022/11/13 09:07:58;;;;;;;8.82;4.47;;;19.30;58.40;;;;;;5025191;28;20053;-71
2022/11/13 09:10:25;;;;;;;11.55;4.20;;;19.30;58.40;;;;;;5033517;28;20069;-72
2022/11/13 09:13:02;;;;;;;10.23;4.93;;;19.30;58.40;;;;;;5029170;28;20087;-74
2022/11/13 09:15:29;;;;;;;10.10;4.88;;;19.40;58.50;;;;;;5033674;28;20509;-74
2022/11/13 09:17:59;;;;;;;7.43;4.20;;;19.40;58.50;;;;;;5033093;28;20045;-72
2022/11/13 09:20:27;;;;;;;6.43;4.10;;;19.40;58.60;;;;;;5027067;28;20574;-74
2022/11/13 09:23:02;;;;;;;13.70;4.18;;;19.40;58.70;;;;;;5012324;28;20796;-74
2022/11/13 09:25:29;;;;;;;7.60;4.45;;;19.40;58.80;;;;;;5024237;28;20062;-72
2022/11/13 09:27:58;;;;;;;8.38;3.88;;;19.40;58.80;;;;;;5028577;28;20046;-72
2022/11/13 09:30:24;;;;;;;6.68;4.22;;;19.40;58.90;;;;;;5027520;28;20378;-72
2022/11/13 09:32:54;;;;;;;5.05;4.07;;;19.40;58.90;;;;;;5025969;28;20148;-73
2022/11/13 09:35:32;;;;;;;5.90;4.30;;;19.40;59.00;;;;;;5033077;28;20060;-72
2022/11/13 09:38:04;;;;;;;7.60;4.40;;;19.40;59.10;;;;;;5030064;28;20116;-73
2022/11/13 09:40:36;;;;;;;9.30;4.55;;;19.50;59.30;;;;;;5035216;28;20090;-72
2022/11/13 09:43:06;;;;;;;10.60;4.13;;;19.50;59.40;;;;;;5017330;28;20076;-72
2022/11/13 09:45:32;;;;;;;6.82;3.92;;;19.50;59.40;;;;;;5030670;28;20096;-73
2022/11/13 09:48:16;;;;;;;10.25;4.38;;;19.50;59.50;;;;;;5032685;28;20109;-73
2022/11/13 09:50:42;;;;;;;11.32;4.32;;;19.50;59.60;;;;;;5029692;28;20052;-72
2022/11/13 09:53:11;;;;;;;8.73;4.00;;;19.50;59.60;;;;;;5013482;28;20037;-72
2022/11/13 09:55:44;;;;;;;8.57;4.40;;;19.50;59.60;;;;;;5030227;28;20047;-73
2022/11/13 09:58:30;;;;;;;8.38;4.07;;;19.50;59.70;;;;;;5029216;28;20056;-74
2022/11/13 10:00:59;;;;;;;7.43;3.63;;;19.50;59.70;;;;;;5025600;28;20132;-73
2022/11/13 10:03:30;;;;;;;6.28;3.83;;;19.50;59.70;;;;;;5024893;28;20060;-73
2022/11/13 10:06:22;;;;;;;9.35;4.07;;;19.50;59.60;;;;;;5031201;28;20052;-73
2022/11/13 10:09:02;;;;;;;7.88;3.80;;;19.50;59.70;;;;;;5026454;28;20052;-72
2022/11/13 10:11:49;;;;;;;8.07;4.15;;;19.50;59.70;;;;;;5028588;28;20045;-73
2022/11/13 10:14:24;;;;;;;7.13;4.22;;;19.50;59.60;;;;;;5026632;28;20729;-72
2022/11/13 10:17:20;;;;;;;6.38;4.13;;;19.50;59.60;;;;;;5022231;28;20132;-73
2022/11/13 10:19:46;;;;;;;8.38;3.72;;;19.50;59.60;;;;;;5027595;28;20049;-73
2022/11/13 10:22:23;;;;;;;7.78;4.00;;;19.50;59.60;;;;;;5028898;28;20049;-73
2022/11/13 10:24:51;;;;;;;5.15;3.75;;;19.50;59.70;;;;;;5027584;28;20044;-72
2022/11/13 10:27:17;;;;;;;7.05;3.97;;;19.50;59.60;;;;;;5026134;28;20040;-72
2022/11/13 10:29:44;;;;;;;6.65;3.60;;;19.50;59.60;;;;;;5028167;28;20104;-72
2022/11/13 10:32:21;;;;;;;7.53;4.05;;;19.60;59.70;;;;;;5032204;28;20052;-72
2022/11/13 10:34:55;;;;;;;7.50;4.25;;;19.50;59.70;;;;;;5024429;28;20377;-72
2022/11/13 10:37:21;;;;;;;6.50;3.80;;;19.60;59.70;;;;;;5028351;28;20057;-73
2022/11/13 10:39:46;;;;;;;7.20;4.20;;;19.60;59.70;;;;;;5029160;28;20055;-72
2022/11/13 10:42:37;;;;;;;6.15;3.63;;;19.50;59.60;;;;;;5025775;28;20053;-73
2022/11/13 10:45:03;;;;;;;9.70;4.00;;;19.60;59.70;;;;;;5029297;28;20064;-72
2022/11/13 10:47:31;;;;;;;7.35;3.78;;;19.60;59.70;;;;;;5027817;28;20159;-72
2022/11/13 10:50:29;;;;;;;7.95;3.65;;;19.60;59.70;;;;;;5028308;28;20117;-71
2022/11/13 10:52:56;;;;;;;4.90;3.50;;;19.60;59.70;;;;;;5024954;28;20880;-76
2022/11/13 10:55:26;;;;;;;5.97;3.53;;;19.60;59.70;;;;;;5033314;28;20518;-72
2022/11/13 10:58:00;;;;;;;4.57;3.63;;;19.60;59.70;;;;;;5027386;28;20346;-73
2022/11/13 11:00:31;;;;;;;6.75;3.80;;;19.60;59.70;;;;;;5023377;28;20160;-72
2022/11/13 11:02:57;;;;;;;6.30;3.58;;;19.60;59.70;;;;;;5027536;28;20103;-73
2022/11/13 11:05:25;;;;;;;5.65;3.50;;;19.60;59.70;;;;;;5026498;28;20564;-72
2022/11/13 11:07:52;;;;;;;11.77;4.10;;;19.60;59.60;;;;;;5022756;28;20040;-74
2022/11/13 11:10:32;;;;;;;4.80;3.47;;;19.60;59.60;;;;;;5028723;28;20515;-72
2022/11/13 11:13:10;;;;;;;6.10;3.72;;;19.60;59.50;;;;;;5029005;28;20276;-73
2022/11/13 11:15:48;;;;;;;5.22;3.63;;;19.60;59.50;;;;;;5031564;28;20044;-73
2022/11/13 11:18:38;;;;;;;5.03;3.78;;;19.60;59.50;;;;;;5022007;28;20045;-76
2022/11/13 11:21:12;;;;;;;4.47;3.50;;;19.70;59.50;;;;;;4985811;28;20130;-74
2022/11/13 11:24:13;;;;;;;6.43;3.42;;;19.60;59.40;;;;;;5030322;28;20114;-75
2022/11/13 11:26:46;;;;;;;4.65;3.33;;;19.60;59.40;;;;;;5025118;28;20064;-72
2022/11/13 11:29:17;;;;;;;7.15;3.58;;;19.60;59.40;;;;;;5032544;28;20213;-75
2022/11/13 11:31:50;;;;;;;5.28;3.42;;;19.60;59.40;;;;;;5028952;28;20048;-74
2022/11/13 11:34:29;;;;;;;7.70;3.60;;;19.60;59.20;;;;;;5030335;28;20127;-74
2022/11/13 11:37:13;;;;;;;7.32;3.95;;;19.60;59.20;;;;;;5028583;28;20049;-72
2022/11/13 11:39:54;;;;;;;9.10;4.00;;;19.60;59.20;;;;;;5027234;28;20051;-71
2022/11/13 11:42:44;;;;;;;6.82;3.42;;;19.50;59.20;;;;;;5035737;28;20037;-73
2022/11/13 11:45:22;;;;;;;7.07;3.70;;;19.60;59.30;;;;;;5030579;28;20041;-73
2022/11/13 11:47:48;;;;;;;7.97;3.45;;;19.60;59.20;;;;;;5031307;28;20048;-71
2022/11/13 11:50:34;;;;;;;5.82;3.45;;;19.60;59.00;;;;;;5033291;28;20246;-73
2022/11/13 11:53:12;;;;;;;4.95;3.42;;;19.70;59.10;;;;;;4998585;28;20096;-74
2022/11/13 11:56:00;;;;;;;6.82;3.97;;;19.70;59.00;;;;;;5031110;28;20151;-74
2022/11/13 11:58:46;;;;;;;4.00;3.50;;;19.80;58.90;;;;;;5028487;28;20061;-75
2022/11/13 12:01:44;;;;;;;8.68;3.72;;;19.80;58.90;;;;;;5014308;28;20152;-74
2022/11/13 12:04:25;;;;;;;5.47;3.50;;;19.80;58.80;;;;;;5030388;28;20061;-74
2022/11/13 12:07:27;;;;;;;7.13;3.60;;;19.80;58.90;;;;;;5018784;28;20045;-75
2022/11/13 12:10:33;;;;;;;6.85;3.80;;;19.90;58.80;;;;;;5028884;28;20931;-76
2022/11/13 12:13:27;;;;;;;13.52;3.72;;;19.90;58.80;;;;;;5007073;28;20238;-74
2022/11/13 12:16:17;;;;;;;6.57;3.75;;;20.00;58.90;;;;;;5026848;28;20491;-74
2022/11/13 12:19:22;;;;;;;7.25;3.70;;;20.00;58.80;;;;;;5040005;28;20049;-74
2022/11/13 12:21:53;;;;;;;6.57;3.85;;;20.00;58.70;;;;;;5002174;28;20115;-76
2022/11/13 12:24:52;;;;;;;7.07;3.42;;;19.90;58.70;;;;;;5030252;28;20386;-71
2022/11/13 12:27:24;;;;;;;4.70;3.45;;;20.00;58.70;;;;;;5030473;28;20045;-71
2022/11/13 12:30:19;;;;;;;3.95;3.10;;;20.00;58.70;;;;;;5026780;28;20037;-72
2022/11/13 12:33:07;;;;;;;5.93;3.20;;;20.00;58.60;;;;;;5049488;28;20049;-72
2022/11/13 12:35:33;;;;;;;5.63;3.88;;;20.00;58.60;;;;;;5031347;28;20055;-71
2022/11/13 12:38:37;;;;;;;5.40;3.15;;;20.00;58.80;;;;;;5031633;28;20032;-71
2022/11/13 12:41:31;;;;;;;5.88;3.53;;;20.00;58.60;;;;;;4999230;28;20497;-72
2022/11/13 12:44:06;;;;;;;7.20;3.22;;;20.00;58.60;;;;;;5032859;28;20696;-72
2022/11/13 12:46:38;;;;;;;6.65;3.65;;;20.00;58.70;;;;;;5026576;28;20033;-72
2022/11/13 12:49:24;;;;;;;6.97;4.00;;;19.90;58.60;;;;;;5031787;28;20098;-71
2022/11/13 12:51:58;;;;;;;4.97;3.25;;;20.00;58.70;;;;;;5030760;28;20041;-71
2022/11/13 12:54:29;;;;;;;4.68;3.30;;;19.90;58.60;;;;;;5027096;28;20044;-71
2022/11/13 12:57:14;;;;;;;7.68;3.60;;;20.00;58.70;;;;;;5017071;28;20087;-74
2022/11/13 12:59:45;;;;;;;5.80;3.70;;;19.90;58.70;;;;;;5027863;28;20047;-72
2022/11/13 13:02:13;;;;;;;6.65;3.42;;;19.90;58.70;;;;;;5028380;28;20469;-72